Wisconsin Rapids, Wisconsin
Current Conditions -  °F | °C
As of 2:54 AM on Saturday 29 Nov 2014 (Local Time) from KISW Reporting Station
Haze Haze  
Wind Chill: 18°   Ceiling: 300
Heat Index: 25°   Visibility: 2.5mi
Dew Point: 22°   Wind: 6mph
Humidity: 88%   Direction: 120°ESE
Pressure: 29.72"   Gusts: NA
Location:  44.39°N, 89.82°W
Report Text: KISW 290854Z AUTO 12005KT 2 1/2SM BR OVC003 M04/M06 A2972 RMK AO2 SLP079 T10391056 56024 $
Loading
Personal Weather Stations






























Interactive Weather Map New forecast layout! Learn more

10-Day Weather Forecast

Advertisements
Track Severe Weather on mobile